createdAt,value
2022-12-05T00:00:19.236Z,97265.88
2022-12-05T00:03:23.222Z,97258.66
2022-12-05T00:06:27.553Z,97260.53
2022-12-05T00:09:31.369Z,97256.78
2022-12-05T00:12:35.377Z,97276.53
2022-12-05T00:15:39.008Z,97281.25
2022-12-05T00:18:43.059Z,97281.03
2022-12-05T00:21:47.318Z,97288.13
2022-12-05T00:24:51.040Z,97285.38
2022-12-05T00:27:54.869Z,97289.16
2022-12-05T00:30:59.895Z,97282.16
2022-12-05T00:34:03.963Z,97288.72
2022-12-05T00:37:08.084Z,97283.75
2022-12-05T00:40:12.202Z,97279.56
2022-12-05T00:43:16.030Z,97290.69
2022-12-05T00:46:20.189Z,97288.13
2022-12-05T00:49:24.155Z,97288.59
2022-12-05T00:52:28.136Z,97289.13
2022-12-05T00:55:32.209Z,97283.00
2022-12-05T00:58:35.889Z,97292.81
2022-12-05T01:01:40.340Z,97299.69
2022-12-05T01:04:44.562Z,97310.19
2022-12-05T01:07:48.564Z,97319.03
2022-12-05T01:10:53.480Z,97320.53
2022-12-05T01:13:57.092Z,97322.53
2022-12-05T01:17:01.455Z,97324.97
2022-12-05T01:20:05.535Z,97333.94
2022-12-05T01:23:09.686Z,97334.91
2022-12-05T01:26:13.525Z,97335.78
2022-12-05T01:29:17.708Z,97328.34
2022-12-05T01:32:21.854Z,97328.91
2022-12-05T01:35:25.911Z,97321.28
2022-12-05T01:38:29.915Z,97315.69
2022-12-05T01:41:33.752Z,97311.19
2022-12-05T01:44:37.820Z,97315.56
2022-12-05T01:47:44.288Z,97307.16
2022-12-05T01:50:48.294Z,97316.94
2022-12-05T01:53:52.013Z,97320.38
2022-12-05T01:56:55.930Z,97338.47
2022-12-05T02:00:00.304Z,97333.25
2022-12-05T02:03:04.843Z,97334.19
2022-12-05T02:06:08.687Z,97325.63
2022-12-05T02:09:12.874Z,97324.03
2022-12-05T02:12:16.989Z,97329.00
2022-12-05T02:15:20.968Z,97321.34
2022-12-05T02:18:25.099Z,97323.41
2022-12-05T02:21:30.483Z,97326.22
2022-12-05T02:24:34.468Z,97327.31
2022-12-05T02:27:38.448Z,97335.81
2022-12-05T02:30:42.549Z,97339.06
2022-12-05T02:33:46.613Z,97340.34
2022-12-05T02:36:50.777Z,97338.16
2022-12-05T02:39:54.652Z,97332.44
2022-12-05T02:42:58.750Z,97338.81
2022-12-05T02:46:03.144Z,97335.25
2022-12-05T02:49:07.107Z,97324.56
2022-12-05T02:52:11.258Z,97330.38
2022-12-05T02:55:15.201Z,97326.63
2022-12-05T02:58:19.284Z,97324.16
2022-12-05T03:01:23.539Z,97326.47
2022-12-05T03:04:27.588Z,97326.00
2022-12-05T03:07:31.643Z,97322.16
2022-12-05T03:10:35.711Z,97315.56
2022-12-05T03:13:39.839Z,97321.50
2022-12-05T03:16:43.948Z,97317.19
2022-12-05T03:19:48.070Z,97310.84
2022-12-05T03:22:51.972Z,97313.66
2022-12-05T03:25:56.047Z,97318.41
2022-12-05T03:29:00.151Z,97320.09
2022-12-05T03:32:04.244Z,97327.63
2022-12-05T03:35:08.171Z,97331.28
2022-12-05T03:38:12.422Z,97329.53
2022-12-05T03:41:16.766Z,97332.06
2022-12-05T03:44:20.932Z,97340.72
2022-12-05T03:47:24.709Z,97336.44
2022-12-05T03:50:28.832Z,97338.22
2022-12-05T03:53:34.349Z,97348.41
2022-12-05T03:56:38.565Z,97339.69
2022-12-05T03:59:42.665Z,97336.94
2022-12-05T04:02:46.459Z,97337.25
2022-12-05T04:05:50.309Z,97336.47
2022-12-05T04:08:54.297Z,97348.81
2022-12-05T04:11:58.127Z,97350.28
2022-12-05T04:15:02.215Z,97345.81
2022-12-05T04:18:06.207Z,97349.91
2022-12-05T04:21:10.249Z,97360.28
2022-12-05T04:24:14.317Z,97358.97
2022-12-05T04:27:18.470Z,97364.81
2022-12-05T04:30:22.637Z,97371.84
2022-12-05T04:33:26.521Z,97373.50
2022-12-05T04:36:30.511Z,97378.22
2022-12-05T04:39:34.741Z,97375.47
2022-12-05T04:42:38.744Z,97385.56
2022-12-05T04:45:42.832Z,97383.81
2022-12-05T04:48:46.901Z,97382.53
2022-12-05T04:51:50.871Z,97389.19
2022-12-05T04:54:55.088Z,97390.63
2022-12-05T04:57:59.261Z,97403.00
2022-12-05T05:01:05.972Z,97400.78
2022-12-05T05:04:10.048Z,97403.63
2022-12-05T05:07:14.059Z,97410.97
2022-12-05T05:10:18.091Z,97406.41
2022-12-05T05:13:21.784Z,97408.97
2022-12-05T05:16:25.712Z,97414.97
2022-12-05T05:19:29.828Z,97415.72
2022-12-05T05:22:34.042Z,97408.25
2022-12-05T05:25:38.288Z,97412.94
2022-12-05T05:28:42.332Z,97419.84
2022-12-05T05:31:46.416Z,97423.31
2022-12-05T05:34:50.305Z,97423.91
2022-12-05T05:37:54.435Z,97422.91
2022-12-05T05:40:58.854Z,97427.03
2022-12-05T05:44:02.668Z,97427.19
2022-12-05T05:47:06.523Z,97438.38
2022-12-05T05:50:10.705Z,97430.34
2022-12-05T05:53:16.112Z,97427.78
2022-12-05T05:56:21.716Z,97438.22
2022-12-05T05:59:26.269Z,97442.59
2022-12-05T06:02:29.932Z,97438.72
2022-12-05T06:05:34.026Z,97445.34
2022-12-05T06:08:38.332Z,97447.38
2022-12-05T06:11:42.322Z,97453.97
2022-12-05T06:14:46.572Z,97459.44
2022-12-05T06:17:50.831Z,97469.22
2022-12-05T06:20:55.253Z,97468.66
2022-12-05T06:24:01.104Z,97476.53
2022-12-05T06:27:04.992Z,97479.19
2022-12-05T06:30:08.921Z,97479.59
2022-12-05T06:33:12.774Z,97482.94
2022-12-05T06:36:17.122Z,97486.34
2022-12-05T06:39:21.088Z,97488.25
2022-12-05T06:42:25.180Z,97493.66
2022-12-05T06:45:29.130Z,97488.88
2022-12-05T06:48:33.105Z,97493.91
2022-12-05T06:51:37.208Z,97496.31
2022-12-05T06:54:41.406Z,97498.53
2022-12-05T06:57:45.535Z,97492.91
2022-12-05T07:00:49.547Z,97495.72
2022-12-05T07:03:53.498Z,97508.88
2022-12-05T07:06:59.662Z,97514.25
2022-12-05T07:10:03.699Z,97517.53
2022-12-05T07:13:10.045Z,97514.75
2022-12-05T07:16:15.615Z,97512.78
2022-12-05T07:19:19.567Z,97527.06
2022-12-05T07:22:23.550Z,97532.31
2022-12-05T07:25:27.648Z,97541.50
2022-12-05T07:28:31.873Z,97542.31
2022-12-05T07:31:35.774Z,97550.31
2022-12-05T07:34:39.562Z,97545.69
2022-12-05T07:37:43.606Z,97551.38
2022-12-05T07:40:47.946Z,97548.81
2022-12-05T07:43:52.070Z,97562.63
2022-12-05T07:46:55.886Z,97559.47
2022-12-05T07:50:00.227Z,97568.84
2022-12-05T07:53:04.696Z,97572.50
2022-12-05T07:56:08.943Z,97569.47
2022-12-05T07:59:12.942Z,97576.09
2022-12-05T08:02:16.880Z,97582.97
2022-12-05T08:05:20.870Z,97590.19
2022-12-05T08:08:25.037Z,97587.22
2022-12-05T08:11:28.965Z,97581.78
2022-12-05T08:14:32.970Z,97592.25
2022-12-05T08:17:36.838Z,97594.66
2022-12-05T08:20:41.019Z,97599.28
2022-12-05T08:23:45.094Z,97598.09
2022-12-05T08:26:49.059Z,97598.25
2022-12-05T08:29:52.874Z,97606.31
2022-12-05T08:32:56.914Z,97613.38
2022-12-05T08:36:01.053Z,97611.38
2022-12-05T08:39:05.111Z,97612.16
2022-12-05T08:42:08.969Z,97611.09
2022-12-05T08:45:12.921Z,97609.41
2022-12-05T08:48:17.023Z,97616.44
2022-12-05T08:51:21.044Z,97623.28
2022-12-05T08:54:24.960Z,97622.06
2022-12-05T08:57:28.874Z,97629.81
2022-12-05T09:00:32.898Z,97635.78
2022-12-05T09:03:36.880Z,97645.25
2022-12-05T09:06:40.711Z,97645.44
2022-12-05T09:09:44.684Z,97644.47
2022-12-05T09:12:48.603Z,97639.78
2022-12-05T09:15:52.770Z,97643.00
2022-12-05T09:18:56.884Z,97646.72
2022-12-05T09:22:00.814Z,97647.66
2022-12-05T09:25:04.764Z,97660.22
2022-12-05T09:28:08.715Z,97656.63
2022-12-05T09:31:12.896Z,97655.91
2022-12-05T09:34:16.806Z,97656.28
2022-12-05T09:37:37.408Z,97669.44
2022-12-05T09:40:41.443Z,97661.44
2022-12-05T09:43:45.331Z,97666.06
2022-12-05T09:46:49.470Z,97673.06
2022-12-05T09:49:53.296Z,97670.41
2022-12-05T09:52:57.370Z,97671.63
2022-12-05T09:56:01.340Z,97674.31
2022-12-05T09:59:05.624Z,97676.69
2022-12-05T10:02:09.657Z,97671.53
2022-12-05T10:05:13.556Z,97670.63
2022-12-05T10:08:17.424Z,97662.06
2022-12-05T10:11:21.379Z,97668.88
2022-12-05T10:14:25.598Z,97670.84
2022-12-05T10:17:29.756Z,97670.75
2022-12-05T10:20:33.824Z,97666.59
2022-12-05T10:27:01.455Z,97661.97
2022-12-05T10:30:05.471Z,97661.84
2022-12-05T10:33:09.904Z,97661.59
2022-12-05T10:36:13.562Z,97653.13
2022-12-05T10:39:17.426Z,97652.34
2022-12-05T10:42:21.411Z,97654.03
2022-12-05T10:45:25.577Z,97644.84
2022-12-05T10:48:29.479Z,97653.22
2022-12-05T10:51:37.485Z,97647.59
2022-12-05T10:54:42.094Z,97646.59
2022-12-05T10:57:45.973Z,97651.13
2022-12-05T11:00:50.058Z,97647.91
2022-12-05T11:03:54.205Z,97640.63
2022-12-05T11:06:58.205Z,97635.41
2022-12-05T11:10:02.185Z,97641.03
2022-12-05T11:13:06.242Z,97646.75
2022-12-05T11:16:10.265Z,97640.91
2022-12-05T11:19:15.826Z,97638.91
2022-12-05T11:22:19.927Z,97633.69
2022-12-05T11:25:23.879Z,97630.44
2022-12-05T11:28:27.894Z,97640.19
2022-12-05T11:31:32.260Z,97632.50
2022-12-05T11:34:36.118Z,97626.81
2022-12-05T11:37:39.951Z,97624.25
2022-12-05T11:40:44.192Z,97623.84
2022-12-05T11:43:48.292Z,97624.03
2022-12-05T11:46:52.467Z,97625.31
2022-12-05T11:49:56.286Z,97616.81
2022-12-05T11:53:00.196Z,97623.63
2022-12-05T11:56:04.431Z,97622.34
2022-12-05T11:59:08.495Z,97621.38
2022-12-05T12:02:12.736Z,97623.09
2022-12-05T12:05:16.685Z,97617.72
2022-12-05T12:08:20.558Z,97621.41
2022-12-05T12:11:24.725Z,97617.25
2022-12-05T12:14:28.825Z,97617.34
2022-12-05T12:17:32.962Z,97625.81
2022-12-05T12:20:37.047Z,97630.16
2022-12-05T12:23:40.888Z,97619.56
2022-12-05T12:26:45.063Z,97622.00
2022-12-05T12:29:49.167Z,97621.63
2022-12-05T12:32:53.326Z,97625.63
2022-12-05T12:35:57.250Z,97629.63
2022-12-05T12:39:01.287Z,97625.31
2022-12-05T12:42:05.456Z,97631.50
2022-12-05T12:45:09.394Z,97628.66
2022-12-05T12:48:13.187Z,97629.75
2022-12-05T12:51:16.913Z,97626.13
2022-12-05T12:54:34.420Z,97623.50
2022-12-05T12:57:45.107Z,97625.00
2022-12-05T13:00:49.361Z,97624.63
2022-12-05T13:03:53.532Z,97620.13
2022-12-05T13:06:57.347Z,97620.63
2022-12-05T13:10:01.176Z,97613.84
2022-12-05T13:13:05.434Z,97622.19
2022-12-05T13:16:09.645Z,97620.63
2022-12-05T13:19:13.327Z,97621.69
2022-12-05T13:22:17.428Z,97617.59
2022-12-05T13:25:21.043Z,97609.31
2022-12-05T13:28:26.152Z,97617.31
2022-12-05T13:31:30.352Z,97606.06
2022-12-05T13:34:34.317Z,97607.66
2022-12-05T13:37:38.167Z,97618.13
2022-12-05T13:40:42.575Z,97616.41
2022-12-05T13:43:53.416Z,97617.81
2022-12-05T13:47:04.424Z,97613.47
2022-12-05T13:50:08.528Z,97611.25
2022-12-05T13:53:12.876Z,97615.88
2022-12-05T13:56:17.288Z,97611.75
2022-12-05T13:59:21.566Z,97607.69
2022-12-05T14:02:25.555Z,97610.44
2022-12-05T14:05:29.793Z,97603.25
2022-12-05T14:08:34.103Z,97600.13
2022-12-05T14:11:38.222Z,97606.16
2022-12-05T14:14:42.453Z,97606.34
2022-12-05T14:17:46.551Z,97604.03
2022-12-05T14:20:50.628Z,97600.06
2022-12-05T14:23:54.645Z,97600.53
2022-12-05T14:26:58.679Z,97594.19
2022-12-05T14:30:02.672Z,97594.56
2022-12-05T14:33:06.583Z,97597.78
2022-12-05T14:36:10.507Z,97598.97
2022-12-05T14:39:14.708Z,97596.06
2022-12-05T14:42:18.882Z,97599.69
2022-12-05T14:45:22.725Z,97608.00
2022-12-05T14:48:26.775Z,97598.84
2022-12-05T14:51:30.958Z,97599.34
2022-12-05T14:54:34.936Z,97595.75
2022-12-05T14:57:38.755Z,97589.16
2022-12-05T15:00:46.594Z,97591.44
2022-12-05T15:03:51.941Z,97592.31
2022-12-05T15:06:55.919Z,97596.53
2022-12-05T15:10:00.226Z,97598.00
2022-12-05T15:13:04.580Z,97597.81
2022-12-05T15:16:08.550Z,97600.69
2022-12-05T15:19:12.512Z,97597.69
2022-12-05T15:22:16.386Z,97603.31
2022-12-05T15:25:20.592Z,97598.81
2022-12-05T15:28:24.721Z,97596.53
2022-12-05T15:31:28.967Z,97599.75
2022-12-05T15:34:33.255Z,97606.44
2022-12-05T15:37:37.208Z,97611.69
2022-12-05T15:40:41.374Z,97612.56
2022-12-05T15:43:45.433Z,97619.31
2022-12-05T15:46:49.232Z,97629.66
2022-12-05T15:49:53.489Z,97634.28
2022-12-05T15:52:57.375Z,97629.09
2022-12-05T15:56:01.760Z,97623.22
2022-12-05T15:59:05.575Z,97623.03
2022-12-05T16:02:09.738Z,97626.25
2022-12-05T16:05:14.065Z,97633.50
2022-12-05T16:08:18.348Z,97628.19
2022-12-05T16:11:22.124Z,97631.19
2022-12-05T16:14:58.356Z,97629.94
2022-12-05T16:17:53.034Z,97639.88
2022-12-05T16:20:57.074Z,97634.09
2022-12-05T16:24:00.892Z,97642.16
2022-12-05T16:27:05.059Z,97650.59
2022-12-05T16:30:09.217Z,97644.41
2022-12-05T16:33:13.185Z,97648.41
2022-12-05T16:36:17.262Z,97636.72
2022-12-05T16:39:21.554Z,97641.34
2022-12-05T16:42:26.059Z,97642.97
2022-12-05T16:45:33.199Z,97647.38
2022-12-05T16:48:37.492Z,97646.59
2022-12-05T16:51:42.728Z,97643.16
2022-12-05T16:54:49.878Z,97642.56
2022-12-05T16:57:54.507Z,97642.16
2022-12-05T17:01:01.076Z,97644.97
2022-12-05T17:04:06.928Z,97640.94
2022-12-05T17:17:56.512Z,97654.44
2022-12-05T17:24:40.110Z,97654.81
2022-12-05T17:27:44.768Z,97656.25
2022-12-05T17:37:38.480Z,97658.84
2022-12-05T17:58:30.768Z,97663.25
2022-12-05T18:01:36.293Z,97669.69
2022-12-05T18:04:40.299Z,97669.31
2022-12-05T18:07:45.709Z,97662.44
2022-12-05T18:11:02.584Z,97664.88
2022-12-05T18:14:07.983Z,97657.03
2022-12-05T18:17:18.044Z,97673.16
2022-12-05T18:20:28.796Z,97669.13
2022-12-05T18:23:37.512Z,97681.38
2022-12-05T18:26:55.920Z,97670.72
2022-12-05T18:33:36.063Z,97670.41
2022-12-05T18:36:42.912Z,97675.44
2022-12-05T18:39:47.482Z,97677.25
2022-12-05T18:42:51.753Z,97670.22
2022-12-05T18:45:55.694Z,97671.44
2022-12-05T18:49:03.367Z,97675.25
2022-12-05T18:52:18.536Z,97681.91
2022-12-05T18:55:51.972Z,97683.91
2022-12-05T18:59:07.480Z,97690.16
2022-12-05T19:05:49.329Z,97678.25
2022-12-05T19:08:54.561Z,97683.16
2022-12-05T19:12:27.722Z,97683.16
2022-12-05T19:15:32.324Z,97690.56
2022-12-05T19:22:11.928Z,97687.94
2022-12-05T19:25:18.159Z,97686.94
2022-12-05T19:28:25.117Z,97681.31
2022-12-05T19:31:30.482Z,97689.53
2022-12-05T19:34:34.967Z,97692.91
2022-12-05T19:37:40.129Z,97686.09
2022-12-05T19:40:44.225Z,97692.31
2022-12-05T19:43:48.222Z,97698.56
2022-12-05T19:46:53.526Z,97684.69
2022-12-05T19:49:57.747Z,97692.16
2022-12-05T19:53:01.901Z,97687.09
2022-12-05T19:56:07.063Z,97697.56
2022-12-05T19:59:11.413Z,97699.41
2022-12-05T20:02:15.634Z,97691.53
2022-12-05T20:05:20.069Z,97696.19
2022-12-05T20:08:29.362Z,97698.38
2022-12-05T20:11:35.121Z,97694.72
2022-12-05T20:14:40.781Z,97697.84
2022-12-05T20:17:52.879Z,97687.19
2022-12-05T20:20:57.312Z,97687.44
2022-12-05T20:24:01.483Z,97684.16
2022-12-05T20:27:05.328Z,97688.06
2022-12-05T20:30:09.066Z,97693.50
2022-12-05T20:33:13.182Z,97691.44
2022-12-05T20:36:17.128Z,97689.94
2022-12-05T20:39:21.139Z,97688.59
2022-12-05T20:42:24.957Z,97693.72
2022-12-05T20:45:29.109Z,97681.84
2022-12-05T20:48:33.046Z,97684.47
2022-12-05T20:51:36.885Z,97685.97
2022-12-05T20:54:41.160Z,97686.03
2022-12-05T20:57:45.004Z,97686.25
2022-12-05T21:00:49.102Z,97685.09
2022-12-05T21:03:53.009Z,97686.75
2022-12-05T21:06:58.142Z,97684.59
2022-12-05T21:10:07.984Z,97682.22
2022-12-05T21:13:14.816Z,97679.00
2022-12-05T21:16:20.809Z,97671.34
2022-12-05T21:19:32.201Z,97672.41
2022-12-05T21:22:39.450Z,97664.16
2022-12-05T21:25:43.490Z,97673.75
2022-12-05T21:28:50.041Z,97672.72
2022-12-05T21:31:57.665Z,97666.28
2022-12-05T21:35:08.369Z,97661.41
2022-12-05T21:38:12.584Z,97655.19
2022-12-05T21:41:24.386Z,97647.25
2022-12-05T21:44:28.699Z,97650.88
2022-12-05T21:47:32.765Z,97647.56
2022-12-05T21:50:36.866Z,97646.88
2022-12-05T21:53:44.572Z,97648.19
2022-12-05T21:56:48.651Z,97649.69
2022-12-05T21:59:53.019Z,97648.28
2022-12-05T22:02:57.613Z,97650.53
2022-12-05T22:06:01.585Z,97648.97
2022-12-05T22:09:05.533Z,97643.78
2022-12-05T22:12:09.232Z,97643.28
2022-12-05T22:15:13.329Z,97649.25
2022-12-05T22:18:17.299Z,97655.13
2022-12-05T22:21:20.996Z,97655.06
2022-12-05T22:24:24.955Z,97653.53
2022-12-05T22:27:28.978Z,97656.53
2022-12-05T22:30:32.909Z,97656.84
2022-12-05T22:33:36.765Z,97651.44
2022-12-05T22:36:40.955Z,97650.63
2022-12-05T22:39:44.888Z,97650.59
2022-12-05T22:42:48.904Z,97652.78
2022-12-05T22:45:52.766Z,97648.47
2022-12-05T22:48:57.768Z,97648.56
2022-12-05T22:52:04.340Z,97643.03
2022-12-05T22:55:08.519Z,97645.47
2022-12-05T22:58:12.667Z,97645.72
2022-12-05T23:01:16.635Z,97644.53
2022-12-05T23:04:21.948Z,97643.53
2022-12-05T23:07:26.117Z,97640.91
2022-12-05T23:10:29.749Z,97642.75
2022-12-05T23:13:33.841Z,97638.91
2022-12-05T23:16:37.827Z,97634.78
2022-12-05T23:19:42.017Z,97629.25
2022-12-05T23:22:48.434Z,97636.44
2022-12-05T23:25:52.607Z,97634.25
2022-12-05T23:28:56.598Z,97628.38
2022-12-05T23:32:00.884Z,97624.03
2022-12-05T23:35:05.177Z,97628.78
2022-12-05T23:38:09.127Z,97620.25
2022-12-05T23:41:16.918Z,97617.44
2022-12-05T23:44:20.847Z,97616.56
2022-12-05T23:47:24.789Z,97622.88
2022-12-05T23:50:29.757Z,97613.91
2022-12-05T23:53:34.114Z,97609.06
2022-12-05T23:56:37.758Z,97610.69
2022-12-05T23:59:41.677Z,97611.78
